createdAt,value
2022-10-04T00:01:44.131Z,14.70
2022-10-04T00:04:21.422Z,14.70
2022-10-04T00:07:14.604Z,14.70
2022-10-04T00:09:52.344Z,14.70
2022-10-04T00:12:21.888Z,14.70
2022-10-04T00:14:51.053Z,14.70
2022-10-04T00:17:28.197Z,14.80
2022-10-04T00:19:56.337Z,14.70
2022-10-04T00:22:29.129Z,14.70
2022-10-04T00:25:09.944Z,14.70
2022-10-04T00:27:38.847Z,14.70
2022-10-04T00:30:07.083Z,14.80
2022-10-04T00:32:40.503Z,14.70
2022-10-04T00:35:26.463Z,14.70
2022-10-04T00:38:29.736Z,14.80
2022-10-04T00:41:04.607Z,14.70
2022-10-04T00:43:36.867Z,14.80
2022-10-04T00:46:21.408Z,14.80
2022-10-04T00:48:59.076Z,14.80
2022-10-04T00:51:34.434Z,14.90
2022-10-04T00:54:20.224Z,14.80
2022-10-04T00:56:52.516Z,14.80
2022-10-04T00:59:37.579Z,14.90
2022-10-04T01:02:28.712Z,14.80
2022-10-04T01:05:00.451Z,14.80
2022-10-04T01:07:32.810Z,14.80
2022-10-04T01:10:05.354Z,14.90
2022-10-04T01:12:45.360Z,14.90
2022-10-04T01:15:26.855Z,14.90
2022-10-04T01:18:14.395Z,15.00
2022-10-04T01:20:54.441Z,15.00
2022-10-04T01:23:51.784Z,15.00
2022-10-04T01:26:32.293Z,14.90
2022-10-04T01:29:18.302Z,15.00
2022-10-04T01:31:48.825Z,15.00
2022-10-04T01:34:22.210Z,15.00
2022-10-04T01:36:52.598Z,15.00
2022-10-04T01:39:23.123Z,15.00
2022-10-04T01:42:02.592Z,15.00
2022-10-04T01:44:55.368Z,15.10
2022-10-04T01:47:46.979Z,15.10
2022-10-04T01:50:20.448Z,15.10
2022-10-04T01:52:52.970Z,15.10
2022-10-04T01:55:25.793Z,15.20
2022-10-04T01:58:00.827Z,15.20
2022-10-04T02:00:29.378Z,15.20
2022-10-04T02:03:15.337Z,15.20
2022-10-04T02:05:49.450Z,15.20
2022-10-04T02:08:22.099Z,15.30
2022-10-04T02:10:51.509Z,15.30
2022-10-04T02:13:19.264Z,15.30
2022-10-04T02:15:48.395Z,15.30
2022-10-04T02:18:20.656Z,15.30
2022-10-04T02:20:50.526Z,15.30
2022-10-04T02:23:20.579Z,15.30
2022-10-04T02:25:48.323Z,15.20
2022-10-04T02:28:18.339Z,15.30
2022-10-04T02:31:09.654Z,15.30
2022-10-04T02:33:41.928Z,15.30
2022-10-04T02:36:10.769Z,15.30
2022-10-04T02:38:44.416Z,15.20
2022-10-04T02:41:27.008Z,15.30
2022-10-04T02:48:05.803Z,15.30
2022-10-04T02:50:55.672Z,15.30
2022-10-04T02:53:46.128Z,15.30
2022-10-04T02:56:13.853Z,15.30
2022-10-04T02:58:42.304Z,15.30
2022-10-04T03:01:17.973Z,15.30
2022-10-04T03:03:47.463Z,15.30
2022-10-04T03:06:19.162Z,15.30
2022-10-04T03:08:51.542Z,15.20
2022-10-04T03:11:22.713Z,15.20
2022-10-04T03:13:52.891Z,15.30
2022-10-04T03:16:21.769Z,15.20
2022-10-04T03:18:51.852Z,15.20
2022-10-04T03:21:21.766Z,15.20
2022-10-04T03:23:51.778Z,15.20
2022-10-04T03:26:29.111Z,15.10
2022-10-04T03:28:58.897Z,15.20
2022-10-04T03:31:27.892Z,15.10
2022-10-04T03:33:57.309Z,15.10
2022-10-04T03:36:26.441Z,15.10
2022-10-04T03:38:56.909Z,15.20
2022-10-04T03:41:26.042Z,15.10
2022-10-04T03:43:56.078Z,15.20
2022-10-04T03:46:25.236Z,15.10
2022-10-04T03:48:54.438Z,15.20
2022-10-04T03:51:26.402Z,15.20
2022-10-04T03:53:57.394Z,15.20
2022-10-04T03:56:35.260Z,15.20
2022-10-04T03:59:07.433Z,15.20
2022-10-04T04:01:45.213Z,15.20
2022-10-04T04:04:24.959Z,15.20
2022-10-04T04:07:01.439Z,15.20
2022-10-04T04:09:45.800Z,15.30
2022-10-04T04:12:25.000Z,15.20
2022-10-04T04:14:53.845Z,15.20
2022-10-04T04:17:30.001Z,15.30
2022-10-04T04:20:07.410Z,15.20
2022-10-04T04:22:36.377Z,15.20
2022-10-04T04:25:09.136Z,15.20
2022-10-04T04:27:40.606Z,15.20
2022-10-04T04:30:09.190Z,15.20
2022-10-04T04:32:45.359Z,15.30
2022-10-04T04:35:33.162Z,15.30
2022-10-04T04:38:11.606Z,15.20
2022-10-04T04:40:39.027Z,15.20
2022-10-04T04:43:06.823Z,15.30
2022-10-04T04:45:36.253Z,15.20
2022-10-04T04:48:05.915Z,15.30
2022-10-04T04:50:36.646Z,15.30
2022-10-04T04:53:27.688Z,15.30
2022-10-04T04:56:05.002Z,15.30
2022-10-04T04:58:38.165Z,15.30
2022-10-04T05:01:28.293Z,15.40
2022-10-04T05:04:14.157Z,15.40
2022-10-04T05:07:06.354Z,15.40
2022-10-04T05:09:36.099Z,15.30
2022-10-04T05:12:18.072Z,15.30
2022-10-04T05:14:49.048Z,15.30
2022-10-04T05:17:20.961Z,15.30
2022-10-04T05:19:48.617Z,15.20
2022-10-04T05:22:22.378Z,15.20
2022-10-04T05:24:54.579Z,15.20
2022-10-04T05:27:33.148Z,15.20
2022-10-04T05:30:31.125Z,15.20
2022-10-04T05:33:03.555Z,15.10
2022-10-04T05:35:57.496Z,15.10
2022-10-04T05:38:57.804Z,15.10
2022-10-04T05:41:42.058Z,15.10
2022-10-04T05:44:31.575Z,15.10
2022-10-04T05:47:05.367Z,15.00
2022-10-04T05:49:44.309Z,15.00
2022-10-04T05:52:25.254Z,15.00
2022-10-04T05:55:17.873Z,15.00
2022-10-04T05:58:18.375Z,15.00
2022-10-04T06:01:02.702Z,14.90
2022-10-04T06:03:58.028Z,14.80
2022-10-04T06:07:00.633Z,14.80
2022-10-04T06:09:39.766Z,14.80
2022-10-04T06:12:13.359Z,14.80
2022-10-04T06:14:49.899Z,14.70
2022-10-04T06:17:26.216Z,14.70
2022-10-04T06:20:12.519Z,14.70
2022-10-04T06:22:46.016Z,14.70
2022-10-04T06:25:31.523Z,14.70
2022-10-04T06:28:07.648Z,14.70
2022-10-04T06:31:04.174Z,14.80
2022-10-04T06:33:45.982Z,14.80
2022-10-04T06:36:31.852Z,14.80
2022-10-04T06:39:13.134Z,14.90
2022-10-04T06:42:18.753Z,14.90
2022-10-04T06:45:10.539Z,14.80
2022-10-04T06:47:48.675Z,14.80
2022-10-04T06:50:41.074Z,14.90
2022-10-04T06:53:33.081Z,14.90
2022-10-04T06:56:31.377Z,14.80
2022-10-04T06:59:18.602Z,14.90
2022-10-04T07:02:04.171Z,14.90
2022-10-04T07:05:06.487Z,14.90
2022-10-04T07:07:41.982Z,14.90
2022-10-04T07:10:23.719Z,14.90
2022-10-04T07:13:02.778Z,15.00
2022-10-04T07:15:45.257Z,15.00
2022-10-04T07:18:19.734Z,15.00
2022-10-04T07:20:49.024Z,15.00
2022-10-04T07:23:27.573Z,15.00
2022-10-04T07:26:01.647Z,15.00
2022-10-04T07:28:52.388Z,15.10
2022-10-04T07:31:28.098Z,15.10
2022-10-04T07:34:02.379Z,15.10
2022-10-04T07:36:51.915Z,15.20
2022-10-04T07:39:47.623Z,15.20
2022-10-04T07:42:21.053Z,15.20
2022-10-04T07:45:17.667Z,15.30
2022-10-04T07:47:45.178Z,15.30
2022-10-04T07:50:35.368Z,15.40
2022-10-04T07:53:15.323Z,15.50
2022-10-04T07:55:52.707Z,15.50
2022-10-04T07:58:26.383Z,15.50
2022-10-04T08:00:53.893Z,15.50
2022-10-04T08:03:33.310Z,15.50
2022-10-04T08:06:23.821Z,15.50
2022-10-04T08:09:02.827Z,15.60
2022-10-04T08:11:44.989Z,15.60
2022-10-04T08:14:45.665Z,15.60
2022-10-04T08:17:24.196Z,15.60
2022-10-04T08:20:02.365Z,15.60
2022-10-04T08:22:48.603Z,15.70
2022-10-04T08:25:28.284Z,15.70
2022-10-04T08:28:53.698Z,15.80
2022-10-04T08:31:39.371Z,15.80
2022-10-04T08:34:06.971Z,15.90
2022-10-04T08:36:56.172Z,16.00
2022-10-04T08:39:55.578Z,16.00
2022-10-04T08:42:28.934Z,16.10
2022-10-04T08:45:17.019Z,16.20
2022-10-04T08:48:22.552Z,16.20
2022-10-04T08:51:14.258Z,16.20
2022-10-04T08:54:13.548Z,16.30
2022-10-04T08:57:22.555Z,16.30
2022-10-04T09:00:08.676Z,16.40
2022-10-04T09:02:54.600Z,16.40
2022-10-04T09:05:34.368Z,16.30
2022-10-04T09:08:20.775Z,16.20
2022-10-04T09:11:21.748Z,16.20
2022-10-04T09:14:04.418Z,16.20
2022-10-04T09:16:55.786Z,16.10
2022-10-04T09:19:31.748Z,16.10
2022-10-04T09:22:11.566Z,16.10
2022-10-04T09:25:12.885Z,16.20
2022-10-04T09:27:58.154Z,16.10
2022-10-04T09:31:08.958Z,16.20
2022-10-04T09:33:53.467Z,16.20
2022-10-04T09:36:42.777Z,16.30
2022-10-04T09:39:29.961Z,16.20
2022-10-04T09:42:39.629Z,16.30
2022-10-04T09:45:07.508Z,16.30
2022-10-04T09:48:16.997Z,16.40
2022-10-04T09:51:08.301Z,16.30
2022-10-04T09:53:46.562Z,16.30
2022-10-04T09:56:43.120Z,16.30
2022-10-04T09:59:39.829Z,16.30
2022-10-04T10:02:29.233Z,16.30
2022-10-04T10:05:35.265Z,16.40
2022-10-04T10:08:28.435Z,16.30
2022-10-04T10:11:34.619Z,16.30
2022-10-04T10:14:19.721Z,16.40
2022-10-04T10:16:53.463Z,16.40
2022-10-04T10:20:01.573Z,16.50
2022-10-04T10:22:53.850Z,16.50
2022-10-04T10:25:35.858Z,16.60
2022-10-04T10:28:48.732Z,16.70
2022-10-04T10:31:27.935Z,16.80
2022-10-04T10:34:13.655Z,16.80
2022-10-04T10:37:18.925Z,16.90
2022-10-04T10:39:56.671Z,17.00
2022-10-04T10:42:42.817Z,17.10
2022-10-04T10:45:26.638Z,17.20
2022-10-04T10:48:20.084Z,17.20
2022-10-04T10:51:12.198Z,17.30
2022-10-04T10:54:17.067Z,17.40
2022-10-04T10:56:59.483Z,17.40
2022-10-04T10:59:57.150Z,17.40
2022-10-04T11:02:49.875Z,17.40
2022-10-04T11:05:27.015Z,17.40
2022-10-04T11:08:00.356Z,17.30
2022-10-04T11:10:53.848Z,17.20
2022-10-04T11:13:50.346Z,17.00
2022-10-04T11:16:38.824Z,17.00
2022-10-04T11:19:29.385Z,17.00
2022-10-04T11:22:11.627Z,17.00
2022-10-04T11:24:45.051Z,16.90
2022-10-04T11:27:32.085Z,16.90
2022-10-04T11:30:23.545Z,16.90
2022-10-04T11:32:53.745Z,17.00
2022-10-04T11:35:44.977Z,17.10
2022-10-04T11:38:30.163Z,17.20
2022-10-04T11:41:13.664Z,17.30
2022-10-04T11:44:16.407Z,17.40
2022-10-04T11:47:16.018Z,17.30
2022-10-04T11:50:20.481Z,17.30
2022-10-04T11:53:03.183Z,17.40
2022-10-04T11:55:54.404Z,17.90
2022-10-04T11:58:42.821Z,17.90
2022-10-04T12:01:40.706Z,17.80
2022-10-04T12:04:37.173Z,17.80
2022-10-04T12:07:23.180Z,17.60
2022-10-04T12:09:50.545Z,17.50
2022-10-04T12:12:51.533Z,17.50
2022-10-04T12:15:45.342Z,17.40
2022-10-04T12:18:43.929Z,17.40
2022-10-04T12:21:18.165Z,17.40
2022-10-04T12:24:29.781Z,17.30
2022-10-04T12:27:21.879Z,17.30
2022-10-04T12:30:00.141Z,17.30
2022-10-04T12:32:52.219Z,17.30
2022-10-04T12:35:40.655Z,17.30
2022-10-04T12:38:14.518Z,17.30
2022-10-04T12:40:56.187Z,17.40
2022-10-04T12:43:43.164Z,17.30
2022-10-04T12:46:39.669Z,17.30
2022-10-04T12:49:31.854Z,17.30
2022-10-04T12:51:59.265Z,17.30
2022-10-04T12:54:26.631Z,17.30
2022-10-04T12:57:02.604Z,17.30
2022-10-04T12:59:32.811Z,17.30
2022-10-04T13:02:39.216Z,17.30
2022-10-04T13:05:18.135Z,17.30
2022-10-04T13:08:10.144Z,17.30
2022-10-04T13:11:03.233Z,17.40
2022-10-04T13:13:36.780Z,17.30
2022-10-04T13:19:34.940Z,17.30
2022-10-04T13:22:55.284Z,17.40
2022-10-04T13:25:30.921Z,17.50
2022-10-04T13:28:05.781Z,17.50
2022-10-04T13:30:49.884Z,17.40
2022-10-04T13:33:45.420Z,17.30
2022-10-04T13:36:26.903Z,17.30
2022-10-04T13:39:09.526Z,17.20
2022-10-04T13:41:43.432Z,17.20
2022-10-04T13:44:20.932Z,17.20
2022-10-04T13:47:00.928Z,17.20
2022-10-04T13:49:43.354Z,17.20
2022-10-04T13:52:58.492Z,17.20
2022-10-04T13:55:50.453Z,17.20
2022-10-04T13:58:41.165Z,17.20
2022-10-04T14:01:37.934Z,17.20
2022-10-04T14:04:23.811Z,17.20
2022-10-04T14:07:03.088Z,17.20
2022-10-04T14:09:46.835Z,17.20
2022-10-04T14:12:30.839Z,17.20
2022-10-04T14:15:19.629Z,17.20
2022-10-04T14:18:12.606Z,17.20
2022-10-04T14:21:01.503Z,17.20
2022-10-04T14:24:02.803Z,17.20
2022-10-04T14:26:55.931Z,17.20
2022-10-04T14:29:54.557Z,17.20
2022-10-04T14:32:36.669Z,17.20
2022-10-04T14:35:12.692Z,17.20
2022-10-04T14:38:01.503Z,17.20
2022-10-04T14:40:56.375Z,17.10
2022-10-04T14:44:20.972Z,17.10
2022-10-04T14:46:56.984Z,17.00
2022-10-04T14:49:30.866Z,17.00
2022-10-04T14:52:04.589Z,16.90
2022-10-04T14:55:04.440Z,16.90
2022-10-04T14:57:56.398Z,17.00
2022-10-04T15:00:31.325Z,17.00
2022-10-04T15:03:17.590Z,17.10
2022-10-04T15:05:55.094Z,17.20
2022-10-04T15:08:22.490Z,17.30
2022-10-04T15:10:53.560Z,17.20
2022-10-04T15:13:39.445Z,17.20
2022-10-04T15:16:24.713Z,17.20
2022-10-04T15:19:31.400Z,17.30
2022-10-04T15:22:07.493Z,17.30
2022-10-04T15:24:47.897Z,17.40
2022-10-04T15:27:27.233Z,17.40
2022-10-04T15:30:21.627Z,17.40
2022-10-04T15:33:27.359Z,17.40
2022-10-04T15:35:57.776Z,17.30
2022-10-04T15:38:32.824Z,17.30
2022-10-04T15:41:06.360Z,17.40
2022-10-04T15:43:43.718Z,17.40
2022-10-04T15:46:38.718Z,17.30
2022-10-04T15:49:32.936Z,17.30
2022-10-04T15:52:18.467Z,17.30
2022-10-04T15:55:23.161Z,17.20
2022-10-04T15:58:19.969Z,17.20
2022-10-04T16:00:53.792Z,17.20
2022-10-04T16:03:58.592Z,17.20
2022-10-04T16:06:32.776Z,17.20
2022-10-04T16:09:24.844Z,17.10
2022-10-04T16:12:07.215Z,17.10
2022-10-04T16:14:37.428Z,17.10
2022-10-04T16:17:41.754Z,17.10
2022-10-04T16:20:15.569Z,17.10
2022-10-04T16:23:32.337Z,17.20
2022-10-04T16:26:19.564Z,17.20
2022-10-04T16:29:24.468Z,17.20
2022-10-04T16:32:10.531Z,17.20
2022-10-04T16:35:00.308Z,17.20
2022-10-04T16:37:31.465Z,17.10
2022-10-04T16:40:24.142Z,17.10
2022-10-04T16:42:57.129Z,17.00
2022-10-04T16:46:02.308Z,17.00
2022-10-04T16:48:41.842Z,17.00
2022-10-04T16:51:18.633Z,17.00
2022-10-04T16:54:28.960Z,16.90
2022-10-04T16:56:58.036Z,16.90
2022-10-04T16:59:38.086Z,16.90
2022-10-04T17:02:49.145Z,16.80
2022-10-04T17:05:20.171Z,16.80
2022-10-04T17:08:05.917Z,16.80
2022-10-04T17:10:48.615Z,16.80
2022-10-04T17:13:37.281Z,16.70
2022-10-04T17:16:29.311Z,16.70
2022-10-04T17:19:20.798Z,16.70
2022-10-04T17:22:16.067Z,16.70
2022-10-04T17:25:02.405Z,16.60
2022-10-04T17:27:57.755Z,16.60
2022-10-04T17:30:28.121Z,16.60
2022-10-04T17:32:58.192Z,16.70
2022-10-04T17:35:57.300Z,16.70
2022-10-04T17:38:51.305Z,16.60
2022-10-04T17:42:07.590Z,16.70
2022-10-04T17:44:53.622Z,16.60
2022-10-04T17:48:03.383Z,16.60
2022-10-04T17:51:04.993Z,16.60
2022-10-04T17:53:55.355Z,16.60
2022-10-04T17:56:33.267Z,16.60
2022-10-04T17:59:12.444Z,16.70
2022-10-04T18:01:51.934Z,16.60
2022-10-04T18:04:27.996Z,16.60
2022-10-04T18:07:04.295Z,16.50
2022-10-04T18:09:43.438Z,16.50
2022-10-04T18:12:22.786Z,16.50
2022-10-04T18:15:07.287Z,16.40
2022-10-04T18:17:40.210Z,16.40
2022-10-04T18:20:27.085Z,16.40
2022-10-04T18:23:17.965Z,16.40
2022-10-04T18:25:46.003Z,16.30
2022-10-04T18:28:20.867Z,16.30
2022-10-04T18:31:05.844Z,16.30
2022-10-04T18:33:50.257Z,16.30
2022-10-04T18:36:24.552Z,16.30
2022-10-04T18:39:14.372Z,16.30
2022-10-04T18:41:55.101Z,16.30
2022-10-04T18:44:30.078Z,16.30
2022-10-04T18:47:00.140Z,16.30
2022-10-04T18:49:31.117Z,16.30
2022-10-04T18:52:07.653Z,16.30
2022-10-04T18:55:04.391Z,16.30
2022-10-04T18:58:03.271Z,16.20
2022-10-04T19:01:01.992Z,16.20
2022-10-04T19:03:41.053Z,16.20
2022-10-04T19:06:29.424Z,16.20
2022-10-04T19:09:21.303Z,16.20
2022-10-04T19:12:13.109Z,16.20
2022-10-04T19:14:53.547Z,16.20
2022-10-04T19:17:32.199Z,16.20
2022-10-04T19:20:32.017Z,16.20
2022-10-04T19:23:39.269Z,16.20
2022-10-04T19:26:33.204Z,16.20
2022-10-04T19:29:15.637Z,16.20
2022-10-04T19:32:01.940Z,16.20
2022-10-04T19:34:59.650Z,16.20
2022-10-04T19:37:34.273Z,16.20
2022-10-04T19:40:28.559Z,16.20
2022-10-04T19:43:08.330Z,16.20
2022-10-04T19:45:46.307Z,16.20
2022-10-04T19:48:25.571Z,16.20
2022-10-04T19:51:08.683Z,16.20
2022-10-04T19:53:45.199Z,16.20
2022-10-04T19:56:18.770Z,16.20
2022-10-04T19:59:16.493Z,16.20
2022-10-04T20:01:44.902Z,16.20
2022-10-04T20:04:33.676Z,16.20
2022-10-04T20:07:04.529Z,16.20
2022-10-04T20:09:49.524Z,16.20
2022-10-04T20:12:35.979Z,16.20
2022-10-04T20:15:14.886Z,16.20
2022-10-04T20:17:44.133Z,16.20
2022-10-04T20:20:37.071Z,16.20
2022-10-04T20:23:07.677Z,16.20
2022-10-04T20:25:44.346Z,16.20
2022-10-04T20:28:26.816Z,16.30
2022-10-04T20:31:00.853Z,16.30
2022-10-04T20:33:34.428Z,16.20
2022-10-04T20:36:09.014Z,16.20
2022-10-04T20:38:49.372Z,16.20
2022-10-04T20:41:29.051Z,16.20
2022-10-04T20:43:59.134Z,16.20
2022-10-04T20:46:29.917Z,16.20
2022-10-04T20:49:15.716Z,16.30
2022-10-04T20:51:48.572Z,16.30
2022-10-04T20:54:20.256Z,16.30
2022-10-04T20:56:49.999Z,16.30
2022-10-04T20:59:18.293Z,16.30
2022-10-04T21:02:05.170Z,16.30
2022-10-04T21:04:33.606Z,16.30
2022-10-04T21:07:06.055Z,16.30
2022-10-04T21:09:36.013Z,16.30
2022-10-04T21:12:05.024Z,16.30
2022-10-04T21:14:37.759Z,16.30
2022-10-04T21:17:24.312Z,16.30
2022-10-04T21:19:52.010Z,16.40
2022-10-04T21:22:31.209Z,16.40
2022-10-04T21:25:01.708Z,16.40
2022-10-04T21:27:36.438Z,16.40
2022-10-04T21:30:07.279Z,16.40
2022-10-04T21:32:35.833Z,16.40
2022-10-04T21:35:05.256Z,16.40
2022-10-04T21:37:33.469Z,16.40
2022-10-04T21:40:01.231Z,16.40
2022-10-04T21:42:28.739Z,16.40
2022-10-04T21:44:56.336Z,16.40
2022-10-04T21:47:23.953Z,16.40
2022-10-04T21:49:52.112Z,16.40
2022-10-04T21:52:19.521Z,16.40
2022-10-04T21:54:46.977Z,16.40
2022-10-04T21:57:14.569Z,16.40
2022-10-04T21:59:42.057Z,16.40
2022-10-04T22:02:09.646Z,16.40
2022-10-04T22:04:38.243Z,16.40
2022-10-04T22:07:05.983Z,16.50
2022-10-04T22:09:34.534Z,16.50
2022-10-04T22:12:01.933Z,16.50
2022-10-04T22:14:29.369Z,16.50
2022-10-04T22:16:56.838Z,16.50
2022-10-04T22:19:24.237Z,16.50
2022-10-04T22:21:52.821Z,16.60
2022-10-04T22:24:20.987Z,16.50
2022-10-04T22:26:49.220Z,16.60
2022-10-04T22:29:18.877Z,16.60
2022-10-04T22:31:50.721Z,16.50
2022-10-04T22:34:22.962Z,16.50
2022-10-04T22:36:53.970Z,16.60
2022-10-04T22:39:21.709Z,16.60
2022-10-04T22:41:55.487Z,16.60
2022-10-04T22:44:26.061Z,16.60
2022-10-04T22:46:56.039Z,16.60
2022-10-04T22:49:29.517Z,16.60
2022-10-04T22:51:58.947Z,16.60
2022-10-04T22:54:32.034Z,16.60
2022-10-04T22:56:59.713Z,16.60
2022-10-04T22:59:53.404Z,16.60
2022-10-04T23:02:29.403Z,16.60
2022-10-04T23:05:18.560Z,16.50
2022-10-04T23:07:47.381Z,16.50
2022-10-04T23:10:17.821Z,16.50
2022-10-04T23:12:47.865Z,16.50
2022-10-04T23:15:20.327Z,16.50
2022-10-04T23:17:54.507Z,16.50
2022-10-04T23:20:22.357Z,16.50
2022-10-04T23:22:52.929Z,16.50
2022-10-04T23:25:23.375Z,16.50
2022-10-04T23:27:50.809Z,16.50
2022-10-04T23:30:22.693Z,16.50
2022-10-04T23:32:53.443Z,16.50
2022-10-04T23:35:29.701Z,16.50
2022-10-04T23:37:57.259Z,16.50
2022-10-04T23:40:25.762Z,16.50
2022-10-04T23:42:56.538Z,16.50
2022-10-04T23:45:25.357Z,16.50
2022-10-04T23:47:55.786Z,16.50
2022-10-04T23:50:29.726Z,16.50
2022-10-04T23:53:04.480Z,16.50
2022-10-04T23:55:41.765Z,16.60
2022-10-04T23:58:22.421Z,16.60
